Time;durP1;ratioP1;P1;durP2;ratioP2;P2;SDS_P1;SDS_P2;PMS_P1;PMS_P2;Temp;Humidity;BMP_temperature;BMP_pressure;BME280_temperature;BME280_humidity;BME280_pressure;Samples;Min_cycle;Max_cycle;Signal;HPM_P1;HPM_P2
2022/03/28 00:00:24;;;;;;;5.28;2.42;;;1.40;1.00;;;1.71;55.17;99464.00;5045144;27;119890;-73
2022/03/28 00:02:52;;;;;;;5.63;2.28;;;1.50;1.00;;;1.73;55.12;99455.72;5044384;27;114651;-72
2022/03/28 00:05:21;;;;;;;6.00;2.70;;;1.50;1.00;;;1.66;55.22;99439.91;5040926;27;130555;-73
2022/03/28 00:07:50;;;;;;;9.20;2.88;;;1.50;1.00;;;1.77;55.17;99433.56;5042201;27;129617;-74
2022/03/28 00:10:19;;;;;;;5.10;2.53;;;1.50;1.00;;;1.86;54.47;99436.59;5048025;27;118287;-77
2022/03/28 00:12:49;;;;;;;6.35;2.78;;;1.50;1.00;;;1.85;55.04;99431.50;5047056;27;115654;-72
2022/03/28 00:15:18;;;;;;;5.93;2.65;;;1.50;1.00;;;1.87;54.89;99419.50;5044890;27;129485;-76
2022/03/28 00:17:47;;;;;;;7.00;2.80;;;1.50;1.00;;;1.83;55.46;99401.53;5045905;27;129737;-75
2022/03/28 00:20:16;;;;;;;6.32;2.78;;;1.50;1.00;;;1.79;54.89;99395.84;5043630;27;119165;-73
2022/03/28 00:22:45;;;;;;;7.05;2.55;;;1.50;1.00;;;1.74;55.31;99391.25;5044324;27;115584;-75
2022/03/28 00:25:14;;;;;;;6.68;2.75;;;1.50;1.00;;;1.74;55.46;99382.44;5040926;27;130756;-75
2022/03/28 00:27:42;;;;;;;6.88;2.72;;;1.50;1.00;;;1.72;55.77;99372.00;5042880;27;129551;-75
2022/03/28 00:30:13;;;;;;;4.30;2.22;;;1.50;1.00;;;1.73;55.63;99360.25;5046809;27;118023;-72
2022/03/28 00:32:44;;;;;;;8.55;2.95;;;1.50;1.00;;;1.67;56.44;99345.22;5047533;27;114961;-75
2022/03/28 00:35:13;;;;;;;6.45;2.80;;;1.50;1.00;;;1.63;56.26;99324.56;5041262;27;130807;-79
2022/03/28 00:37:44;;;;;;;7.68;2.97;;;1.50;1.00;;;1.63;56.57;99320.03;5047795;27;129907;-77
2022/03/28 00:40:13;;;;;;;4.28;2.10;;;1.50;1.00;;;1.72;56.35;99312.34;5043555;27;118828;-78
2022/03/28 00:42:42;;;;;;;7.72;2.45;;;1.50;1.00;;;1.64;56.83;99308.28;5043432;27;116133;-78
2022/03/28 00:45:13;;;;;;;4.85;2.47;;;1.60;1.00;;;1.73;56.02;99295.19;5040482;27;129735;-79
2022/03/28 00:47:43;;;;;;;5.90;2.45;;;1.60;1.00;;;1.72;56.08;99282.91;5040765;27;129513;-78
2022/03/28 00:50:11;;;;;;;8.15;2.97;;;1.60;1.00;;;1.76;56.37;99279.47;5040589;27;118998;-76
2022/03/28 00:52:40;;;;;;;6.57;2.50;;;1.60;1.00;;;1.65;56.98;99267.06;5041893;27;115902;-79
2022/03/28 00:55:10;;;;;;;8.05;2.92;;;1.60;1.00;;;1.77;56.71;99254.28;5038819;27;130312;-72
2022/03/28 00:57:39;;;;;;;5.35;2.60;;;1.60;1.00;;;1.82;57.33;99240.13;5040386;27;129682;-75
2022/03/28 01:00:10;;;;;;;6.55;2.45;;;1.70;1.00;;;1.76;57.40;99242.00;5042362;27;118911;-76
2022/03/28 01:02:40;;;;;;;7.90;2.70;;;1.60;1.00;;;1.72;57.48;99224.84;5044974;27;113962;-76
2022/03/28 01:05:11;;;;;;;9.05;2.33;;;1.60;1.00;;;1.69;57.77;99209.31;5040751;27;129861;-75
2022/03/28 01:07:40;;;;;;;7.85;2.85;;;1.60;1.00;;;1.62;58.13;99198.03;5040758;27;129585;-69
2022/03/28 01:10:10;;;;;;;9.32;2.60;;;1.60;1.00;;;1.57;58.25;99195.34;5041706;27;118945;-76
2022/03/28 01:12:42;;;;;;;8.52;3.00;;;1.50;1.00;;;1.38;59.23;99182.38;5040935;27;115204;-79
2022/03/28 01:15:12;;;;;;;8.40;2.72;;;1.50;1.00;;;1.36;58.86;99173.81;5039573;27;130193;-72
2022/03/28 01:20:30;;;;;;;5.47;2.40;;;1.50;1.00;;;1.39;59.12;99143.91;5040760;27;119627;-75
2022/03/28 01:23:00;;;;;;;9.10;2.75;;;1.40;1.00;;;1.31;59.76;99138.22;5040519;27;114999;-77
2022/03/28 01:25:30;;;;;;;8.40;2.25;;;1.40;1.00;;;1.29;59.77;99130.47;5038824;27;130228;-73
2022/03/28 01:28:00;;;;;;;9.40;2.65;;;1.40;1.00;;;1.35;59.88;99145.47;5041035;27;130362;-76
2022/03/28 01:30:30;;;;;;;6.20;2.90;;;1.40;1.00;;;1.41;59.72;99139.09;5042681;27;119029;-77
2022/03/28 01:33:01;;;;;;;10.13;2.60;;;1.40;1.00;;;1.39;59.91;99141.22;5042237;27;116022;-74
2022/03/28 01:35:35;;;;;;;8.32;2.88;;;1.50;1.00;;;1.47;59.98;99131.09;5041425;27;129937;-75
2022/03/28 01:38:07;;;;;;;6.82;3.05;;;1.50;1.00;;;1.54;59.67;99115.59;5041186;27;129287;-74
2022/03/28 01:40:38;;;;;;;6.47;3.00;;;1.60;1.00;;;1.49;59.48;99107.56;5010663;27;117813;-75
2022/03/28 01:43:07;;;;;;;7.68;2.95;;;1.60;1.00;;;1.47;59.64;99101.69;5043981;27;114238;-75
2022/03/28 01:45:35;;;;;;;5.63;2.88;;;1.50;1.00;;;1.42;59.97;99097.91;5042215;27;129588;-71
2022/03/28 01:48:04;;;;;;;7.65;2.90;;;1.50;1.00;;;1.41;60.29;99117.69;5044962;27;129247;-75
2022/03/28 01:50:33;;;;;;;6.97;3.30;;;1.50;1.00;;;1.55;59.92;99095.84;5043898;27;119259;-75
2022/03/28 01:53:01;;;;;;;6.57;2.97;;;1.50;1.00;;;1.47;60.04;99093.66;5044746;27;115114;-75
2022/03/28 01:55:32;;;;;;;7.82;3.17;;;1.60;1.00;;;1.56;59.76;99100.91;5041745;27;129630;-74
2022/03/28 01:58:00;;;;;;;7.95;3.20;;;1.60;1.00;;;1.54;59.79;99099.56;5044025;27;131069;-75
2022/03/28 02:00:31;;;;;;;7.82;3.33;;;1.60;1.00;;;1.69;59.30;99096.94;5044849;27;119681;-75
2022/03/28 02:03:01;;;;;;;9.68;4.20;;;1.60;1.00;;;1.72;59.77;99098.31;5044476;27;115336;-73
2022/03/28 02:05:29;;;;;;;6.72;3.30;;;1.70;1.00;;;1.78;59.13;99084.66;5041518;27;130453;-74
2022/03/28 02:07:59;;;;;;;7.50;3.45;;;1.70;1.00;;;1.92;58.30;99081.50;5042378;27;130798;-74
2022/03/28 02:10:28;;;;;;;7.68;2.88;;;1.70;1.00;;;1.88;58.94;99077.72;5042984;27;118881;-75
2022/03/28 02:12:58;;;;;;;8.25;3.15;;;1.70;1.00;;;1.86;59.23;99074.53;5046048;27;114781;-73
2022/03/28 02:15:27;;;;;;;7.85;2.90;;;1.70;1.00;;;1.80;59.25;99066.47;5041972;27;130033;-73
2022/03/28 02:17:55;;;;;;;7.03;3.10;;;1.70;1.00;;;1.77;59.61;99061.66;5042281;27;130226;-74
2022/03/28 02:20:24;;;;;;;7.78;3.08;;;1.70;1.00;;;1.78;59.13;99060.59;5028435;27;118768;-73
2022/03/28 02:22:53;;;;;;;6.78;3.17;;;1.70;1.00;;;1.75;58.37;99053.09;5046114;27;116294;-78
2022/03/28 02:25:21;;;;;;;6.50;2.70;;;1.70;1.00;;;1.76;58.78;99044.00;5043497;27;129590;-74
2022/03/28 02:27:53;;;;;;;7.97;3.78;;;1.70;1.00;;;1.66;59.37;99048.53;5042097;27;129026;-73
2022/03/28 02:30:22;;;;;;;7.50;3.17;;;1.60;1.00;;;1.63;59.12;99036.47;5043605;27;118697;-74
2022/03/28 02:32:51;;;;;;;7.35;2.95;;;1.50;1.00;;;1.54;60.23;99040.72;5042842;27;114828;-73
2022/03/28 02:35:20;;;;;;;6.85;2.85;;;1.50;1.00;;;1.59;59.65;99046.06;5041951;27;130900;-75
2022/03/28 02:37:48;;;;;;;6.85;3.10;;;1.50;1.00;;;1.59;59.37;99030.03;5042234;27;130029;-72
2022/03/28 02:40:17;;;;;;;8.65;2.72;;;1.50;1.00;;;1.48;59.87;99029.22;5044440;27;119035;-72
2022/03/28 02:42:45;;;;;;;9.13;3.03;;;1.50;1.00;;;1.51;59.72;99019.84;5048073;27;113949;-72
2022/03/28 02:45:14;;;;;;;6.38;3.42;;;1.40;1.00;;;1.46;60.01;99012.63;5045518;27;129732;-74
2022/03/28 02:47:45;;;;;;;8.23;3.13;;;1.40;1.00;;;1.38;59.77;99015.81;5048482;27;129769;-75
2022/03/28 02:50:14;;;;;;;6.15;2.70;;;1.40;1.00;;;1.48;59.21;99015.84;5050859;27;117936;-76
2022/03/28 02:52:42;;;;;;;6.40;2.75;;;1.40;1.00;;;1.48;59.67;99020.38;5050752;27;114876;-78
2022/03/28 02:55:11;;;;;;;8.52;2.88;;;1.50;1.00;;;1.55;59.16;99021.72;5043708;27;128801;-77
2022/03/28 02:57:40;;;;;;;7.10;2.55;;;1.50;1.00;;;1.49;59.34;99008.63;5044141;27;129598;-75
2022/03/28 03:00:12;;;;;;;7.15;2.80;;;1.40;1.00;;;1.50;59.50;99002.22;5048672;27;118965;-77
2022/03/28 03:02:43;;;;;;;5.32;2.70;;;1.30;1.00;;;1.40;60.05;99003.78;5047489;27;114741;-75
2022/03/28 03:05:14;;;;;;;6.28;2.40;;;1.30;1.00;;;1.31;60.37;98988.50;5043835;27;129828;-73
2022/03/28 03:07:42;;;;;;;7.13;2.28;;;1.30;1.00;;;1.35;59.91;98989.59;5042158;27;129270;-79
2022/03/28 03:10:11;;;;;;;8.05;2.67;;;1.40;1.00;;;1.37;59.77;98985.59;5043095;27;119162;-78
2022/03/28 03:12:40;;;;;;;6.45;2.80;;;1.40;1.00;;;1.43;59.46;98976.53;5046673;27;115951;-74
2022/03/28 03:15:09;;;;;;;6.68;2.58;;;1.50;1.00;;;1.36;60.02;98972.50;5060351;27;129362;-74
2022/03/28 03:17:38;;;;;;;8.15;2.85;;;1.40;1.00;;;1.29;59.96;98986.09;5043910;27;129430;-75
2022/03/28 03:20:07;;;;;;;5.82;2.20;;;1.20;1.00;;;1.29;60.13;98970.06;5043916;27;119167;-75
2022/03/28 03:22:38;;;;;;;7.97;2.70;;;1.20;1.00;;;1.19;60.67;98970.03;5060523;27;114731;-73
2022/03/28 03:25:08;;;;;;;9.73;2.65;;;1.20;1.00;;;1.15;60.82;98947.56;5040329;27;129875;-76
2022/03/28 03:27:38;;;;;;;4.95;2.33;;;1.20;1.00;;;1.24;60.27;98940.63;5041703;27;129567;-74
2022/03/28 03:30:09;;;;;;;6.28;2.58;;;1.20;1.00;;;1.26;60.85;98938.50;5041176;27;118582;-74
2022/03/28 03:32:41;;;;;;;6.93;2.58;;;1.30;1.00;;;1.11;61.51;98930.44;5041933;27;115893;-74
2022/03/28 03:35:10;;;;;;;6.55;2.78;;;1.20;1.00;;;1.13;61.73;98928.31;5040614;27;130861;-75
2022/03/28 03:37:41;;;;;;;8.00;2.50;;;1.20;1.00;;;1.14;61.64;98921.88;5041274;27;130403;-74
2022/03/28 03:40:13;;;;;;;5.63;2.40;;;1.10;1.00;;;1.24;61.12;98919.25;5039784;27;119104;-70
2022/03/28 03:42:41;;;;;;;9.35;3.22;;;1.20;1.00;;;1.14;61.78;98928.06;5041589;27;115058;-74
2022/03/28 03:45:11;;;;;;;6.55;2.67;;;1.20;1.00;;;1.24;61.07;98924.59;5025022;27;129875;-78
2022/03/28 03:47:39;;;;;;;7.50;2.40;;;1.20;1.00;;;1.32;60.94;98921.41;5041504;27;130113;-74
2022/03/28 03:50:10;;;;;;;12.13;2.92;;;1.30;1.00;;;1.31;61.02;98903.78;5042813;27;118784;-74
2022/03/28 03:52:40;;;;;;;6.30;2.60;;;1.20;1.00;;;1.29;61.17;98905.09;5042222;27;114832;-74
2022/03/28 03:55:12;;;;;;;6.57;2.50;;;1.20;1.00;;;1.30;61.20;98891.47;5041085;27;129711;-74
2022/03/28 03:57:41;;;;;;;5.40;2.72;;;1.30;1.00;;;1.28;61.52;98890.94;5040669;27;130105;-76
2022/03/28 04:00:11;;;;;;;7.55;3.78;;;1.20;1.00;;;1.35;61.29;98888.00;5039776;27;118676;-75
2022/03/28 04:02:43;;;;;;;6.45;2.53;;;1.20;1.00;;;1.38;61.38;98877.56;5043319;27;114955;-74
2022/03/28 04:05:12;;;;;;;11.30;3.17;;;1.30;1.00;;;1.39;61.31;98878.38;5042564;27;129569;-75
2022/03/28 04:07:42;;;;;;;8.13;2.70;;;1.20;1.00;;;1.44;60.97;98870.34;5042005;27;128216;-74
2022/03/28 04:10:10;;;;;;;6.90;2.60;;;1.40;1.00;;;1.48;61.06;98865.28;5042179;27;118257;-74
2022/03/28 04:12:39;;;;;;;5.15;2.45;;;1.40;1.00;;;1.61;60.80;98870.09;5026430;27;115859;-75
2022/03/28 04:15:10;;;;;;;5.97;2.70;;;1.40;1.00;;;1.57;61.29;98853.78;5041581;27;129045;-73
2022/03/28 04:17:43;;;;;;;7.75;2.22;;;1.50;1.00;;;1.69;61.37;98856.19;5040738;27;129605;-74
2022/03/28 04:20:14;;;;;;;10.80;2.90;;;1.50;1.00;;;1.82;60.94;98844.13;5059163;27;118438;-73
2022/03/28 04:22:46;;;;;;;8.13;3.05;;;1.60;1.00;;;1.92;60.79;98843.31;5045639;27;114772;-74
2022/03/28 04:25:17;;;;;;;7.93;2.50;;;1.70;1.00;;;2.11;59.85;98841.66;5060668;27;129672;-74
2022/03/28 04:27:45;;;;;;;9.15;3.25;;;1.90;1.00;;;2.37;59.83;98844.28;5045723;27;128448;-74
2022/03/28 04:30:15;;;;;;;10.77;2.63;;;2.00;1.00;;;2.54;59.23;98840.44;5060624;27;118902;-73
2022/03/28 04:32:44;;;;;;;7.60;3.22;;;2.10;1.00;;;2.67;58.49;98827.28;5063447;27;115217;-75
2022/03/28 04:35:15;;;;;;;10.48;3.30;;;2.20;1.00;;;2.78;57.85;98817.28;5062479;27;129815;-75
2022/03/28 04:37:45;;;;;;;8.82;2.72;;;2.40;1.00;;;2.99;57.54;98811.81;5060499;27;129546;-73
2022/03/28 04:40:18;;;;;;;9.02;2.45;;;2.50;1.00;;;3.21;57.40;98814.88;5060645;27;119403;-73
2022/03/28 04:42:49;;;;;;;8.32;3.22;;;2.60;1.00;;;3.36;57.08;98810.47;5061947;27;114630;-73
2022/03/28 04:45:18;;;;;;;7.40;2.80;;;2.70;1.00;;;3.47;56.20;98803.16;5045721;27;129545;-75
2022/03/28 04:47:47;;;;;;;8.40;3.20;;;2.90;1.00;;;3.58;56.17;98797.44;5060848;27;129483;-73
2022/03/28 04:50:15;;;;;;;7.88;3.47;;;3.00;1.00;;;3.59;56.00;98788.28;5060323;27;118918;-73
2022/03/28 04:52:46;;;;;;;10.25;3.53;;;3.00;1.00;;;3.74;55.78;98799.94;5064003;27;117896;-76
2022/03/28 04:55:15;;;;;;;9.02;3.40;;;3.10;1.00;;;3.79;55.47;98797.22;5060459;27;129909;-71
2022/03/28 04:57:45;;;;;;;9.18;3.85;;;3.20;1.00;;;3.68;56.02;98779.63;5062601;27;128214;-69
2022/03/28 05:00:16;;;;;;;8.68;3.08;;;3.20;1.00;;;3.87;55.86;98785.88;5064171;27;118773;-70
2022/03/28 05:02:45;;;;;;;7.75;3.33;;;3.30;1.00;;;3.72;56.30;98780.66;5060936;27;115364;-69
2022/03/28 05:05:13;;;;;;;8.65;3.25;;;3.20;1.00;;;3.79;56.05;98770.38;5060295;27;130036;-73
2022/03/28 05:07:44;;;;;;;8.50;3.60;;;3.30;1.00;;;3.74;56.04;98776.59;5062851;27;128714;-70
2022/03/28 05:10:13;;;;;;;8.02;3.55;;;3.30;1.00;;;3.89;56.25;98770.25;5060542;27;118901;-73
2022/03/28 05:12:42;;;;;;;12.35;4.15;;;3.40;1.00;;;3.92;56.25;98761.63;5045606;27;115173;-71
2022/03/28 05:15:11;;;;;;;8.63;3.38;;;3.40;1.00;;;3.78;56.21;98769.56;5078352;27;130619;-71
2022/03/28 05:17:42;;;;;;;9.27;4.95;;;3.30;1.00;;;3.80;56.96;98761.22;5060151;27;129716;-72
2022/03/28 05:20:12;;;;;;;8.73;3.30;;;3.40;1.00;;;3.79;56.61;98754.28;5060440;27;119564;-69
2022/03/28 05:22:48;;;;;;;8.23;4.25;;;3.40;1.00;;;3.86;57.25;98753.94;5062175;27;116296;-69
2022/03/28 05:25:16;;;;;;;9.30;3.65;;;3.40;1.00;;;3.88;56.95;98752.56;5063956;27;129850;-70
2022/03/28 05:27:46;;;;;;;8.77;3.60;;;3.50;1.00;;;3.95;56.82;98730.75;5063898;27;130353;-69
2022/03/28 05:30:17;;;;;;;10.07;4.03;;;3.60;1.00;;;4.17;56.64;98727.53;5083872;27;118982;-71
2022/03/28 05:32:46;;;;;;;11.85;4.50;;;3.70;1.00;;;4.22;56.66;98732.03;5063131;27;115680;-69
2022/03/28 05:35:16;;;;;;;10.35;4.47;;;3.70;1.00;;;4.37;56.08;98710.34;5065984;27;129904;-69
2022/03/28 05:37:45;;;;;;;11.15;4.20;;;3.90;1.00;;;4.32;56.64;98703.16;5063586;27;129374;-68
2022/03/28 05:40:16;;;;;;;12.68;4.15;;;3.90;1.00;;;4.45;56.29;98695.47;5063914;27;118977;-69
2022/03/28 05:42:45;;;;;;;11.65;4.85;;;4.00;1.00;;;4.65;56.74;98691.69;5064268;27;116671;-70
2022/03/28 05:45:13;;;;;;;9.75;3.88;;;4.10;1.00;;;4.68;56.14;98694.59;5065617;27;129505;-70
2022/03/28 05:47:42;;;;;;;12.77;4.53;;;4.20;1.00;;;4.93;55.89;98679.16;5065594;27;128461;-70
2022/03/28 05:50:11;;;;;;;13.80;4.82;;;4.30;1.00;;;5.17;55.37;98675.53;5064214;27;119075;-74
2022/03/28 05:52:39;;;;;;;11.88;4.55;;;4.40;1.00;;;5.55;54.28;98678.09;5065898;27;114525;-71
2022/03/28 05:55:09;;;;;;;14.00;4.53;;;4.60;1.00;;;5.24;55.40;98665.19;5065457;27;130286;-70
2022/03/28 05:57:39;;;;;;;11.13;4.50;;;4.60;1.00;;;5.40;55.15;98671.88;5082812;27;129090;-71
2022/03/28 06:00:13;;;;;;;10.77;4.78;;;4.70;1.00;;;5.51;55.18;98661.72;5063858;27;118650;-71
2022/03/28 06:02:42;;;;;;;25.83;5.30;;;4.70;1.00;;;5.55;55.10;98661.94;5063151;27;115150;-70
2022/03/28 06:05:12;;;;;;;20.70;5.90;;;4.80;1.00;;;5.54;55.82;98660.34;5063153;27;129596;-71
2022/03/28 06:07:40;;;;;;;14.65;4.88;;;4.80;1.00;;;5.36;56.67;98665.50;5063439;27;130802;-70
2022/03/28 06:10:11;;;;;;;9.90;4.63;;;4.90;1.00;;;5.41;57.27;98643.09;5063486;27;119286;-72
2022/03/28 06:12:41;;;;;;;12.75;5.30;;;4.90;1.00;;;5.60;56.90;98651.06;5065824;27;114562;-69
2022/03/28 06:15:10;;;;;;;16.30;6.75;;;5.10;1.00;;;6.09;56.11;98649.56;5063716;27;130310;-70
2022/03/28 06:17:39;;;;;;;19.45;5.35;;;5.30;1.00;;;6.13;55.80;98651.66;5063303;27;129272;-71
2022/03/28 06:20:10;;;;;;;19.25;5.28;;;5.40;1.00;;;6.03;56.44;98642.69;5063618;27;118680;-73
2022/03/28 06:22:39;;;;;;;12.73;5.20;;;5.40;1.00;;;6.14;56.51;98637.06;5065557;27;114062;-73
2022/03/28 06:25:10;;;;;;;10.57;5.07;;;5.50;1.00;;;6.25;56.59;98633.84;5066078;27;129179;-70
2022/03/28 06:27:43;;;;;;;12.75;4.85;;;5.40;1.00;;;6.34;56.85;98622.34;5063605;27;129445;-74
2022/03/28 06:30:13;;;;;;;13.80;5.28;;;5.60;1.00;;;6.72;55.79;98630.88;5063353;27;119146;-74
2022/03/28 06:32:41;;;;;;;14.20;4.78;;;5.60;1.00;;;6.86;55.90;98600.34;5063347;27;116104;-72
2022/03/28 06:35:10;;;;;;;11.07;4.55;;;5.90;1.00;;;6.67;56.70;98598.66;5062588;27;129541;-71
2022/03/28 06:37:39;;;;;;;16.45;5.80;;;5.90;1.00;;;6.88;56.79;98603.53;5047452;27;129247;-72
2022/03/28 06:40:09;;;;;;;12.70;5.38;;;5.90;1.00;;;6.47;59.02;98589.97;5063299;27;118705;-73
2022/03/28 06:42:37;;;;;;;15.00;6.38;;;5.80;1.00;;;6.87;57.78;98593.84;5063303;27;115034;-72
2022/03/28 06:45:09;;;;;;;13.90;6.28;;;5.90;1.00;;;7.12;56.77;98579.72;5062851;27;129946;-71
2022/03/28 06:47:38;;;;;;;13.95;5.30;;;6.10;1.00;;;7.09;57.16;98583.03;5063144;27;129801;-72
2022/03/28 06:50:08;;;;;;;25.48;6.47;;;6.20;1.00;;;6.86;57.95;98578.75;5064772;27;118061;-73
2022/03/28 06:52:37;;;;;;;11.10;5.70;;;6.00;1.00;;;6.97;57.68;98569.31;5065177;27;115114;-71
2022/03/28 06:55:06;;;;;;;15.60;6.25;;;6.10;1.00;;;7.47;56.68;98566.31;5062340;27;130040;-71
2022/03/28 06:57:36;;;;;;;20.60;6.68;;;6.40;1.00;;;7.58;56.41;98553.34;5062613;27;129282;-71
2022/03/28 07:00:11;;;;;;;17.33;5.72;;;6.40;1.00;;;7.34;57.17;98567.25;5064958;27;117835;-73
2022/03/28 07:02:40;;;;;;;15.40;6.82;;;6.50;1.00;;;7.38;57.65;98546.59;5063054;27;115933;-71
2022/03/28 07:05:10;;;;;;;17.02;5.85;;;6.40;1.00;;;7.25;57.98;98536.75;5062670;27;130209;-72
2022/03/28 07:07:42;;;;;;;13.68;5.90;;;6.30;1.00;;;7.20;58.75;98541.16;5062329;27;130357;-73
2022/03/28 07:10:12;;;;;;;14.57;5.78;;;6.30;1.00;;;7.08;58.69;98522.06;5047792;27;117966;-70
2022/03/28 07:12:41;;;;;;;16.60;5.38;;;6.20;1.00;;;7.12;59.31;98504.16;5063145;27;115703;-73
2022/03/28 07:15:13;;;;;;;17.25;6.28;;;6.30;1.00;;;7.34;58.33;98499.78;5081169;27;129439;-71
2022/03/28 07:17:51;;;;;;;11.95;5.32;;;6.50;1.00;;;7.67;57.71;98496.66;5081545;27;129025;-71
2022/03/28 07:20:22;;;;;;;21.65;5.75;;;6.60;1.00;;;7.91;56.61;98493.47;5063880;27;118265;-71
2022/03/28 07:22:51;;;;;;;14.75;6.05;;;6.80;1.00;;;8.12;56.02;98487.41;5062693;27;115817;-73
2022/03/28 07:25:20;;;;;;;13.10;5.45;;;6.90;1.00;;;8.06;56.24;98494.91;5063866;27;128932;-73
2022/03/28 07:27:50;;;;;;;12.88;5.15;;;6.90;1.00;;;8.42;55.46;98499.94;5062138;27;130090;-74
2022/03/28 07:30:21;;;;;;;13.40;5.55;;;7.00;1.00;;;8.19;55.65;98504.72;5063106;27;118508;-74
2022/03/28 07:32:51;;;;;;;16.45;5.68;;;7.00;1.00;;;8.23;55.71;98500.28;5047264;27;114948;-74
2022/03/28 07:35:21;;;;;;;12.57;5.90;;;6.90;1.00;;;8.04;56.33;98494.41;5043556;27;128706;-72
2022/03/28 07:37:51;;;;;;;14.90;5.75;;;6.80;1.00;;;8.08;56.10;98482.66;5041738;27;130398;-75
2022/03/28 07:40:20;;;;;;;11.38;5.85;;;6.90;1.00;;;7.70;57.63;98488.69;5043571;27;118112;-72
2022/03/28 07:42:49;;;;;;;23.05;6.47;;;6.90;1.00;;;8.10;56.93;98479.63;5043706;27;115005;-73
2022/03/28 07:45:19;;;;;;;10.82;5.88;;;7.00;1.00;;;8.14;56.78;98458.97;5041703;27;129474;-72
2022/03/28 07:47:48;;;;;;;12.90;5.90;;;7.20;1.00;;;8.26;56.63;98478.03;5040921;27;129660;-72
2022/03/28 07:50:16;;;;;;;21.17;6.68;;;7.20;1.00;;;8.33;56.91;98465.94;5041556;27;118832;-73
2022/03/28 07:52:45;;;;;;;13.18;6.50;;;7.40;1.00;;;8.96;55.39;98461.59;5043463;27;114460;-72
2022/03/28 07:55:14;;;;;;;12.93;5.40;;;7.70;1.00;;;9.38;54.13;98446.53;5039738;27;130047;-72
2022/03/28 07:57:43;;;;;;;13.45;6.22;;;7.90;1.00;;;9.12;54.66;98447.50;5041298;27;129279;-74
2022/03/28 08:00:16;;;;;;;14.38;5.97;;;7.80;1.00;;;8.62;56.10;98441.69;5041262;27;118900;-71
2022/03/28 08:02:46;;;;;;;19.42;6.35;;;7.60;1.00;;;8.66;56.67;98447.22;5041713;27;114996;-70
2022/03/28 08:05:15;;;;;;;16.05;6.45;;;7.60;1.00;;;8.88;56.54;98443.50;5043515;27;130031;-72
2022/03/28 08:07:44;;;;;;;14.05;6.00;;;7.80;1.00;;;8.90;56.61;98435.06;5040960;27;129306;-73
2022/03/28 08:10:13;;;;;;;15.07;6.47;;;7.90;1.00;;;8.87;56.46;98439.19;5040254;27;118862;-71
2022/03/28 08:12:43;;;;;;;15.75;6.38;;;7.90;1.00;;;8.79;57.10;98432.72;5041758;27;115963;-71
2022/03/28 08:15:13;;;;;;;15.10;6.25;;;7.90;1.00;;;8.51;57.87;98429.66;5041187;27;129798;-73
2022/03/28 08:17:42;;;;;;;16.17;6.22;;;7.90;1.00;;;8.90;57.29;98425.03;5041077;27;130187;-73
2022/03/28 08:20:14;;;;;;;15.68;5.97;;;8.10;1.00;;;9.28;56.07;98429.56;5041061;27;118787;-71
2022/03/28 08:22:49;;;;;;;19.60;6.18;;;8.20;1.00;;;9.25;56.04;98419.38;5041439;27;115543;-72
2022/03/28 08:25:18;;;;;;;16.52;5.80;;;8.20;1.00;;;9.09;56.70;98416.47;5040609;27;129794;-72
2022/03/28 08:27:48;;;;;;;15.32;6.30;;;8.20;1.00;;;9.20;56.63;98411.47;5040802;27;130332;-73
2022/03/28 08:30:16;;;;;;;16.30;6.70;;;8.20;1.00;;;9.06;56.77;98402.81;5041112;27;119325;-73
2022/03/28 08:32:47;;;;;;;19.83;9.68;;;8.20;1.00;;;9.30;56.64;98400.25;5040772;27;115145;-73
2022/03/28 08:35:18;;;;;;;14.98;7.10;;;8.30;1.00;;;9.28;56.57;98399.78;5041689;27;129705;-73
2022/03/28 08:37:47;;;;;;;19.35;6.47;;;8.40;1.00;;;9.14;57.02;98388.44;5025842;27;128123;-74
2022/03/28 08:40:16;;;;;;;15.90;6.18;;;8.40;1.00;;;9.38;56.87;98400.50;5040645;27;118635;-73
2022/03/28 08:42:46;;;;;;;14.95;6.35;;;8.50;1.00;;;9.67;56.03;98395.00;5034918;27;113999;-74
2022/03/28 08:45:15;;;;;;;14.48;6.05;;;8.70;1.00;;;10.03;55.00;98398.97;5058955;27;129877;-73
2022/03/28 08:47:47;;;;;;;17.70;8.27;;;8.80;1.00;;;9.87;55.51;98381.78;5044936;27;128867;-71
2022/03/28 08:50:17;;;;;;;15.07;7.07;;;8.70;1.00;;;9.87;56.28;98387.97;5062716;27;118378;-71
2022/03/28 08:52:46;;;;;;;21.65;7.00;;;8.80;1.00;;;9.96;55.62;98377.06;5061729;27;115153;-75
2022/03/28 08:55:17;;;;;;;14.55;7.28;;;8.90;1.00;;;9.91;56.21;98382.72;5062133;27;129121;-73
2022/03/28 08:57:46;;;;;;;26.88;13.00;;;9.00;1.00;;;10.00;55.88;98398.88;5032649;27;129168;-72
2022/03/28 09:00:15;;;;;;;12.93;6.30;;;9.00;1.00;;;10.21;55.31;98371.72;5039855;27;118717;-72
2022/03/28 09:02:46;;;;;;;12.13;5.85;;;9.10;1.00;;;10.54;54.92;98368.16;5040770;27;115730;-70
2022/03/28 09:05:18;;;;;;;11.18;6.18;;;9.30;1.00;;;10.43;54.67;98352.31;5040063;27;130131;-73
2022/03/28 09:07:47;;;;;;;13.90;6.45;;;9.40;1.00;;;10.66;54.23;98356.50;5041521;27;129270;-71
2022/03/28 09:10:17;;;;;;;13.45;5.53;;;9.40;1.00;;;10.66;54.06;98368.16;5040326;27;119155;-72
2022/03/28 09:13:01;;;;;;;12.48;6.75;;;9.50;1.00;;;10.72;53.86;98353.22;5025420;27;115192;-71
2022/03/28 09:15:49;;;;;;;16.30;6.25;;;9.50;1.00;;;11.13;53.00;98351.34;5041751;27;129908;-71
2022/03/28 09:18:26;;;;;;;20.40;8.02;;;9.90;1.00;;;11.00;52.77;98347.09;5044246;27;102583;-72
2022/03/28 09:20:59;;;;;;;13.77;6.30;;;9.90;1.00;;;11.18;52.78;98358.47;5040336;27;118937;-71
2022/03/28 09:23:35;;;;;;;13.88;5.85;;;9.90;1.00;;;11.16;52.59;98344.47;5040340;27;116634;-74
2022/03/28 09:26:18;;;;;;;13.48;6.00;;;10.10;1.00;;;11.26;52.36;98340.47;5039634;27;130423;-72
2022/03/28 09:28:49;;;;;;;26.05;11.82;;;10.00;1.00;;;11.10;52.45;98351.25;5041549;27;129226;-71
2022/03/28 09:31:25;;;;;;;12.02;5.22;;;9.90;1.00;;;10.90;52.64;98336.69;5039999;27;118744;-73
2022/03/28 09:34:12;;;;;;;16.65;6.63;;;9.90;1.00;;;10.96;52.65;98336.13;5042460;27;114869;-72
2022/03/28 09:36:49;;;;;;;15.20;6.13;;;9.90;1.00;;;11.26;52.04;98332.31;5039757;27;129972;-73
2022/03/28 09:39:21;;;;;;;15.05;6.57;;;10.10;1.00;;;11.37;51.70;98329.91;5039529;27;130186;-71
2022/03/28 09:42:03;;;;;;;24.40;10.65;;;10.30;1.00;;;11.60;51.37;98324.72;5041846;27;118450;-73
2022/03/28 09:44:37;;;;;;;12.85;6.32;;;10.50;1.00;;;11.69;50.95;98334.28;5037695;27;115942;-74
2022/03/28 09:47:09;;;;;;;17.08;8.00;;;10.40;1.00;;;11.96;50.67;98310.16;5039679;27;130064;-73
2022/03/28 09:49:38;;;;;;;17.60;7.90;;;10.80;1.00;;;12.08;50.35;98317.47;5039004;27;129975;-71
2022/03/28 09:52:11;;;;;;;21.30;6.88;;;10.80;1.00;;;12.31;49.48;98311.41;5039281;27;118966;-73
2022/03/28 09:54:51;;;;;;;22.30;8.82;;;11.00;1.00;;;12.38;49.36;98303.41;5040290;27;116163;-73
2022/03/28 09:57:23;;;;;;;14.63;6.72;;;11.10;1.00;;;12.00;50.31;98293.97;5041415;27;129933;-74
2022/03/28 09:59:55;;;;;;;16.55;7.22;;;10.80;1.00;;;11.82;50.51;98305.13;5039649;27;129384;-72
2022/03/28 10:02:27;;;;;;;10.77;5.47;;;10.80;1.00;;;11.63;51.07;98302.28;5041411;27;117792;-70
2022/03/28 10:04:57;;;;;;;20.75;8.77;;;10.60;1.00;;;12.02;50.42;98303.31;5042477;27;114405;-74
2022/03/28 10:07:28;;;;;;;11.70;5.97;;;10.80;1.00;;;12.14;50.31;98288.88;5040613;27;130813;-70
2022/03/28 10:09:57;;;;;;;25.00;7.80;;;11.10;1.00;;;12.36;49.67;98284.72;5049540;27;130822;-71
2022/03/28 10:12:26;;;;;;;67.80;9.50;;;11.30;1.00;;;12.36;49.72;98297.53;5063474;27;118976;-71
2022/03/28 10:14:58;;;;;;;27.52;6.70;;;11.30;1.00;;;12.29;49.59;98284.53;5064178;27;115564;-70
2022/03/28 10:17:30;;;;;;;14.52;5.50;;;11.20;1.00;;;11.98;50.12;98267.13;5062681;27;130409;-72
2022/03/28 10:19:59;;;;;;;15.20;5.25;;;11.20;1.00;;;11.96;50.41;98276.75;5053458;27;129381;-72
2022/03/28 10:22:33;;;;;;;13.40;5.32;;;11.10;1.00;;;12.10;50.05;98265.44;5049148;27;117563;-72
2022/03/28 10:25:08;;;;;;;10.02;4.88;;;11.20;1.00;;;12.29;50.03;98253.84;5047449;27;114988;-70
2022/03/28 10:27:38;;;;;;;14.10;5.22;;;11.40;1.00;;;12.66;49.71;98248.84;5049982;27;129603;-70
2022/03/28 10:30:24;;;;;;;19.75;6.05;;;11.60;1.00;;;12.92;48.75;98240.06;5044882;27;129856;-73
2022/03/28 10:33:09;;;;;;;21.15;7.60;;;11.90;1.00;;;12.87;48.45;98245.81;5062003;27;118618;-74
2022/03/28 10:35:39;;;;;;;13.93;5.65;;;11.80;1.00;;;12.66;48.93;98239.91;5043341;27;115807;-70
2022/03/28 10:38:18;;;;;;;16.63;4.88;;;11.80;1.00;;;12.58;48.33;98234.28;5057282;27;129186;-72
2022/03/28 10:40:58;;;;;;;15.30;5.10;;;11.70;1.00;;;12.65;48.10;98243.75;5042198;27;129174;-72
2022/03/28 10:43:30;;;;;;;14.73;5.10;;;11.80;1.00;;;12.41;48.25;98226.53;5045716;27;118912;-71